sensor_id;sensor_type;location;lat;lon;timestamp;pressure;altitude;pressure_sealevel;temperature;humidity
39613;BME280;25303;48.896;13.342;2022-09-04T00:00:20;92964.69;;;15.50;65.47
39613;BME280;25303;48.896;13.342;2022-09-04T00:03:16;92959.66;;;15.48;65.45
39613;BME280;25303;48.896;13.342;2022-09-04T00:06:03;92961.47;;;15.48;65.53
39613;BME280;25303;48.896;13.342;2022-09-04T00:09:01;92962.44;;;15.47;65.42
39613;BME280;25303;48.896;13.342;2022-09-04T00:11:48;92960.22;;;15.44;65.58
39613;BME280;25303;48.896;13.342;2022-09-04T00:14:40;92963.38;;;15.39;65.69
39613;BME280;25303;48.896;13.342;2022-09-04T00:17:28;92964.91;;;15.33;65.76
39613;BME280;25303;48.896;13.342;2022-09-04T00:20:27;92968.28;;;15.34;65.76
39613;BME280;25303;48.896;13.342;2022-09-04T00:23:17;92958.91;;;15.33;65.53
39613;BME280;25303;48.896;13.342;2022-09-04T00:26:08;92960.88;;;15.31;65.78
39613;BME280;25303;48.896;13.342;2022-09-04T00:28:57;92968.78;;;15.23;65.84
39613;BME280;25303;48.896;13.342;2022-09-04T00:31:46;92962.25;;;15.12;65.67
39613;BME280;25303;48.896;13.342;2022-09-04T00:34:44;92967.28;;;14.98;66.21
39613;BME280;25303;48.896;13.342;2022-09-04T00:37:34;92970.84;;;14.82;66.35
39613;BME280;25303;48.896;13.342;2022-09-04T00:40:24;92973.00;;;14.64;66.92
39613;BME280;25303;48.896;13.342;2022-09-04T00:43:36;92970.38;;;14.49;67.50
39613;BME280;25303;48.896;13.342;2022-09-04T00:49:48;92981.00;;;14.39;68.03
39613;BME280;25303;48.896;13.342;2022-09-04T00:52:55;92983.78;;;14.37;68.34
39613;BME280;25303;48.896;13.342;2022-09-04T00:55:48;92978.84;;;14.42;68.52
39613;BME280;25303;48.896;13.342;2022-09-04T00:58:50;92990.19;;;14.41;68.96
39613;BME280;25303;48.896;13.342;2022-09-04T01:01:38;92986.19;;;14.39;68.96
39613;BME280;25303;48.896;13.342;2022-09-04T01:04:31;92980.38;;;14.37;69.52
39613;BME280;25303;48.896;13.342;2022-09-04T01:07:31;92986.88;;;14.33;69.78
39613;BME280;25303;48.896;13.342;2022-09-04T01:10:37;92990.28;;;14.33;69.99
39613;BME280;25303;48.896;13.342;2022-09-04T01:13:27;92998.59;;;14.28;70.10
39613;BME280;25303;48.896;13.342;2022-09-04T01:16:21;92995.06;;;14.21;70.51
39613;BME280;25303;48.896;13.342;2022-09-04T01:19:17;92994.97;;;14.15;70.50
39613;BME280;25303;48.896;13.342;2022-09-04T01:22:18;92993.53;;;14.12;70.77
39613;BME280;25303;48.896;13.342;2022-09-04T01:25:15;93003.09;;;14.11;71.27
39613;BME280;25303;48.896;13.342;2022-09-04T01:28:08;92998.72;;;14.12;71.31
39613;BME280;25303;48.896;13.342;2022-09-04T01:30:58;92997.56;;;14.15;71.34
39613;BME280;25303;48.896;13.342;2022-09-04T01:33:50;92993.81;;;14.17;71.24
39613;BME280;25303;48.896;13.342;2022-09-04T01:36:40;92992.66;;;14.20;71.21
39613;BME280;25303;48.896;13.342;2022-09-04T01:39:27;92984.72;;;14.21;71.27
39613;BME280;25303;48.896;13.342;2022-09-04T01:42:17;92996.06;;;14.20;71.33
39613;BME280;25303;48.896;13.342;2022-09-04T01:45:05;92996.41;;;14.17;71.33
39613;BME280;25303;48.896;13.342;2022-09-04T01:47:50;92993.19;;;14.15;71.45
39613;BME280;25303;48.896;13.342;2022-09-04T01:50:38;92998.63;;;14.05;72.24
39613;BME280;25303;48.896;13.342;2022-09-04T01:53:27;92999.75;;;14.03;72.11
39613;BME280;25303;48.896;13.342;2022-09-04T01:56:18;93000.56;;;14.03;72.09
39613;BME280;25303;48.896;13.342;2022-09-04T01:59:08;92999.75;;;14.03;71.97
39613;BME280;25303;48.896;13.342;2022-09-04T02:01:58;93002.00;;;14.06;71.65
39613;BME280;25303;48.896;13.342;2022-09-04T02:04:49;93002.00;;;14.06;71.75
39613;BME280;25303;48.896;13.342;2022-09-04T02:07:41;93008.03;;;13.98;72.34
39613;BME280;25303;48.896;13.342;2022-09-04T02:10:35;93004.47;;;13.99;72.22
39613;BME280;25303;48.896;13.342;2022-09-04T02:13:22;93011.28;;;14.00;71.97
39613;BME280;25303;48.896;13.342;2022-09-04T02:16:14;93005.13;;;14.01;72.05
39613;BME280;25303;48.896;13.342;2022-09-04T02:19:05;93002.34;;;14.03;72.04
39613;BME280;25303;48.896;13.342;2022-09-04T02:22:00;93003.78;;;14.05;71.80
39613;BME280;25303;48.896;13.342;2022-09-04T02:24:49;93011.38;;;14.07;71.83
39613;BME280;25303;48.896;13.342;2022-09-04T02:27:42;93014.25;;;14.12;71.79
39613;BME280;25303;48.896;13.342;2022-09-04T02:30:32;93021.50;;;14.17;71.83
39613;BME280;25303;48.896;13.342;2022-09-04T02:33:20;93012.41;;;14.21;71.66
39613;BME280;25303;48.896;13.342;2022-09-04T02:36:12;93007.97;;;14.30;71.67
39613;BME280;25303;48.896;13.342;2022-09-04T02:39:05;93003.88;;;14.35;71.26
39613;BME280;25303;48.896;13.342;2022-09-04T02:42:00;93007.88;;;14.38;71.26
39613;BME280;25303;48.896;13.342;2022-09-04T02:44:50;93021.66;;;14.38;70.95
39613;BME280;25303;48.896;13.342;2022-09-04T02:47:44;93017.06;;;14.40;70.84
39613;BME280;25303;48.896;13.342;2022-09-04T02:50:40;93010.13;;;14.41;70.82
39613;BME280;25303;48.896;13.342;2022-09-04T02:53:37;93006.72;;;14.40;70.79
39613;BME280;25303;48.896;13.342;2022-09-04T02:56:30;93016.00;;;14.35;70.86
39613;BME280;25303;48.896;13.342;2022-09-04T02:59:29;93012.97;;;14.31;70.89
39613;BME280;25303;48.896;13.342;2022-09-04T03:02:20;93019.66;;;14.25;70.86
39613;BME280;25303;48.896;13.342;2022-09-04T03:05:12;93012.56;;;14.19;71.03
39613;BME280;25303;48.896;13.342;2022-09-04T03:08:04;93014.06;;;14.13;71.04
39613;BME280;25303;48.896;13.342;2022-09-04T03:10:53;93010.41;;;14.08;71.15
39613;BME280;25303;48.896;13.342;2022-09-04T03:13:44;93011.72;;;14.04;71.24
39613;BME280;25303;48.896;13.342;2022-09-04T03:16:35;93012.44;;;13.97;71.41
39613;BME280;25303;48.896;13.342;2022-09-04T03:19:23;93007.94;;;13.91;71.74
39613;BME280;25303;48.896;13.342;2022-09-04T03:22:12;93020.56;;;13.86;71.86
39613;BME280;25303;48.896;13.342;2022-09-04T03:25:08;93025.31;;;13.82;72.22
39613;BME280;25303;48.896;13.342;2022-09-04T03:27:55;93029.84;;;13.80;72.36
39613;BME280;25303;48.896;13.342;2022-09-04T03:30:38;93016.09;;;13.80;72.52
39613;BME280;25303;48.896;13.342;2022-09-04T03:33:30;93021.44;;;13.78;72.56
39613;BME280;25303;48.896;13.342;2022-09-04T03:36:20;93017.41;;;13.76;72.63
39613;BME280;25303;48.896;13.342;2022-09-04T03:39:11;93024.34;;;13.75;72.68
39613;BME280;25303;48.896;13.342;2022-09-04T03:42:04;93024.53;;;13.74;72.63
39613;BME280;25303;48.896;13.342;2022-09-04T03:44:56;93023.75;;;13.73;72.99
39613;BME280;25303;48.896;13.342;2022-09-04T03:47:57;93021.31;;;13.72;73.00
39613;BME280;25303;48.896;13.342;2022-09-04T03:50:50;93019.56;;;13.72;73.22
39613;BME280;25303;48.896;13.342;2022-09-04T03:53:40;93026.69;;;13.70;73.23
39613;BME280;25303;48.896;13.342;2022-09-04T03:56:35;93038.34;;;13.66;73.27
39613;BME280;25303;48.896;13.342;2022-09-04T03:59:37;93041.59;;;13.60;73.44
39613;BME280;25303;48.896;13.342;2022-09-04T04:02:32;93033.88;;;13.51;74.02
39613;BME280;25303;48.896;13.342;2022-09-04T04:05:39;93034.75;;;13.44;74.61
39613;BME280;25303;48.896;13.342;2022-09-04T04:08:38;93036.19;;;13.38;74.33
39613;BME280;25303;48.896;13.342;2022-09-04T04:11:36;93045.25;;;13.34;74.37
39613;BME280;25303;48.896;13.342;2022-09-04T04:14:36;93045.59;;;13.31;74.35
39613;BME280;25303;48.896;13.342;2022-09-04T04:17:45;93044.16;;;13.28;74.58
39613;BME280;25303;48.896;13.342;2022-09-04T04:20:34;93043.97;;;13.30;74.38
39613;BME280;25303;48.896;13.342;2022-09-04T04:23:37;93050.56;;;13.32;74.65
39613;BME280;25303;48.896;13.342;2022-09-04T04:26:35;93047.66;;;13.35;74.53
39613;BME280;25303;48.896;13.342;2022-09-04T04:29:44;93044.44;;;13.33;74.90
39613;BME280;25303;48.896;13.342;2022-09-04T04:32:48;93054.44;;;13.36;74.81
39613;BME280;25303;48.896;13.342;2022-09-04T04:35:40;93059.47;;;13.38;75.04
39613;BME280;25303;48.896;13.342;2022-09-04T04:38:43;93056.69;;;13.40;75.27
39613;BME280;25303;48.896;13.342;2022-09-04T04:41:38;93059.13;;;13.41;75.17
39613;BME280;25303;48.896;13.342;2022-09-04T04:45:03;93065.78;;;13.44;75.35
39613;BME280;25303;48.896;13.342;2022-09-04T04:48:35;93058.81;;;13.44;75.28
39613;BME280;25303;48.896;13.342;2022-09-04T04:51:38;93069.00;;;13.46;75.39
39613;BME280;25303;48.896;13.342;2022-09-04T04:54:48;93076.75;;;13.46;75.37
39613;BME280;25303;48.896;13.342;2022-09-04T04:57:43;93080.00;;;13.48;75.10
39613;BME280;25303;48.896;13.342;2022-09-04T05:00:31;93085.94;;;13.48;75.24
39613;BME280;25303;48.896;13.342;2022-09-04T05:03:24;93090.16;;;13.49;75.32
39613;BME280;25303;48.896;13.342;2022-09-04T05:06:17;93087.75;;;13.48;75.64
39613;BME280;25303;48.896;13.342;2022-09-04T05:09:09;93094.69;;;13.47;75.53
39613;BME280;25303;48.896;13.342;2022-09-04T05:11:58;93094.50;;;13.49;75.56
39613;BME280;25303;48.896;13.342;2022-09-04T05:14:49;93102.09;;;13.50;75.67
39613;BME280;25303;48.896;13.342;2022-09-04T05:17:39;93106.13;;;13.53;75.74
39613;BME280;25303;48.896;13.342;2022-09-04T05:20:37;93112.59;;;13.57;75.80
39613;BME280;25303;48.896;13.342;2022-09-04T05:23:30;93119.69;;;13.63;75.59
39613;BME280;25303;48.896;13.342;2022-09-04T05:26:20;93121.13;;;13.66;75.52
39613;BME280;25303;48.896;13.342;2022-09-04T05:29:12;93121.44;;;13.71;75.38
39613;BME280;25303;48.896;13.342;2022-09-04T05:32:06;93131.09;;;13.77;75.22
39613;BME280;25303;48.896;13.342;2022-09-04T05:35:03;93132.19;;;13.83;75.25
39613;BME280;25303;48.896;13.342;2022-09-04T05:37:56;93133.47;;;13.87;75.15
39613;BME280;25303;48.896;13.342;2022-09-04T05:44:01;93133.78;;;13.92;75.16
39613;BME280;25303;48.896;13.342;2022-09-04T05:47:00;93135.66;;;13.98;75.20
39613;BME280;25303;48.896;13.342;2022-09-04T05:49:58;93145.88;;;14.00;75.11
39613;BME280;25303;48.896;13.342;2022-09-04T05:52:57;93158.28;;;14.05;74.78
39613;BME280;25303;48.896;13.342;2022-09-04T05:56:17;93155.03;;;14.11;74.23
39613;BME280;25303;48.896;13.342;2022-09-04T05:59:26;93153.69;;;14.15;74.30
39613;BME280;25303;48.896;13.342;2022-09-04T06:02:25;93162.75;;;14.19;73.95
39613;BME280;25303;48.896;13.342;2022-09-04T06:05:21;93154.81;;;14.21;74.16
39613;BME280;25303;48.896;13.342;2022-09-04T06:08:14;93162.06;;;14.25;73.64
39613;BME280;25303;48.896;13.342;2022-09-04T06:11:33;93167.88;;;14.27;73.52
39613;BME280;25303;48.896;13.342;2022-09-04T06:17:33;93171.72;;;14.32;73.32
39613;BME280;25303;48.896;13.342;2022-09-04T06:20:31;93178.19;;;14.36;73.20
39613;BME280;25303;48.896;13.342;2022-09-04T06:23:40;93171.22;;;14.36;72.93
39613;BME280;25303;48.896;13.342;2022-09-04T06:29:55;93180.44;;;14.39;73.02
39613;BME280;25303;48.896;13.342;2022-09-04T06:33:05;93175.69;;;14.42;72.92
39613;BME280;25303;48.896;13.342;2022-09-04T06:36:07;93184.94;;;14.45;72.54
39613;BME280;25303;48.896;13.342;2022-09-04T06:39:09;93183.97;;;14.46;72.48
39613;BME280;25303;48.896;13.342;2022-09-04T06:42:06;93182.97;;;14.47;72.40
39613;BME280;25303;48.896;13.342;2022-09-04T06:45:05;93187.97;;;14.49;72.74
39613;BME280;25303;48.896;13.342;2022-09-04T06:48:01;93189.41;;;14.51;72.96
39613;BME280;25303;48.896;13.342;2022-09-04T06:50:52;93192.00;;;14.51;72.49
39613;BME280;25303;48.896;13.342;2022-09-04T06:53:45;93199.28;;;14.56;72.66
39613;BME280;25303;48.896;13.342;2022-09-04T06:56:44;93199.56;;;14.61;72.83
39613;BME280;25303;48.896;13.342;2022-09-04T06:59:47;93203.75;;;14.62;72.72
39613;BME280;25303;48.896;13.342;2022-09-04T07:03:00;93206.81;;;14.66;72.70
39613;BME280;25303;48.896;13.342;2022-09-04T07:05:52;93208.94;;;14.70;72.77
39613;BME280;25303;48.896;13.342;2022-09-04T07:08:46;93215.34;;;14.74;72.83
39613;BME280;25303;48.896;13.342;2022-09-04T07:11:43;93211.63;;;14.77;73.67
39613;BME280;25303;48.896;13.342;2022-09-04T07:14:43;93217.91;;;14.83;73.20
39613;BME280;25303;48.896;13.342;2022-09-04T07:17:33;93223.38;;;14.88;73.29
39613;BME280;25303;48.896;13.342;2022-09-04T07:20:27;93223.31;;;14.96;73.44
39613;BME280;25303;48.896;13.342;2022-09-04T07:23:20;93227.97;;;15.01;73.32
39613;BME280;25303;48.896;13.342;2022-09-04T07:26:17;93230.31;;;15.11;73.76
39613;BME280;25303;48.896;13.342;2022-09-04T07:29:19;93229.28;;;15.20;73.50
39613;BME280;25303;48.896;13.342;2022-09-04T07:32:09;93234.56;;;15.27;73.80
39613;BME280;25303;48.896;13.342;2022-09-04T07:35:00;93240.66;;;15.34;73.59
39613;BME280;25303;48.896;13.342;2022-09-04T07:37:51;93245.94;;;15.41;73.18
39613;BME280;25303;48.896;13.342;2022-09-04T07:40:42;93248.03;;;15.45;73.05
39613;BME280;25303;48.896;13.342;2022-09-04T07:43:33;93248.91;;;15.53;72.89
39613;BME280;25303;48.896;13.342;2022-09-04T07:46:29;93247.03;;;15.61;72.72
39613;BME280;25303;48.896;13.342;2022-09-04T07:49:19;93253.78;;;15.71;72.75
39613;BME280;25303;48.896;13.342;2022-09-04T07:52:17;93246.88;;;15.78;72.92
39613;BME280;25303;48.896;13.342;2022-09-04T07:55:12;93262.53;;;15.85;72.43
39613;BME280;25303;48.896;13.342;2022-09-04T08:01:38;93266.53;;;15.95;72.44
39613;BME280;25303;48.896;13.342;2022-09-04T08:05:08;93267.59;;;16.01;72.14
39613;BME280;25303;48.896;13.342;2022-09-04T08:11:34;93273.78;;;16.15;72.07
39613;BME280;25303;48.896;13.342;2022-09-04T08:14:24;93274.06;;;16.20;72.03
39613;BME280;25303;48.896;13.342;2022-09-04T08:17:31;93275.28;;;16.24;72.13
39613;BME280;25303;48.896;13.342;2022-09-04T08:20:31;93274.91;;;16.28;71.85
39613;BME280;25303;48.896;13.342;2022-09-04T08:23:34;93283.53;;;16.28;71.51
39613;BME280;25303;48.896;13.342;2022-09-04T08:26:30;93283.91;;;16.25;71.69
39613;BME280;25303;48.896;13.342;2022-09-04T08:29:27;93285.50;;;16.26;71.87
39613;BME280;25303;48.896;13.342;2022-09-04T08:32:29;93282.38;;;16.31;71.95
39613;BME280;25303;48.896;13.342;2022-09-04T08:35:23;93279.41;;;16.34;71.92
39613;BME280;25303;48.896;13.342;2022-09-04T08:38:22;93278.41;;;16.35;71.59
39613;BME280;25303;48.896;13.342;2022-09-04T08:41:31;93278.66;;;16.40;72.07
39613;BME280;25303;48.896;13.342;2022-09-04T08:48:25;93291.84;;;16.53;71.87
39613;BME280;25303;48.896;13.342;2022-09-04T08:51:53;93286.53;;;16.62;71.84
39613;BME280;25303;48.896;13.342;2022-09-04T08:58:24;93296.81;;;16.70;71.87
39613;BME280;25303;48.896;13.342;2022-09-04T09:01:52;93308.09;;;16.77;71.43
39613;BME280;25303;48.896;13.342;2022-09-04T09:05:25;93305.56;;;16.84;71.48
39613;BME280;25303;48.896;13.342;2022-09-04T09:08:37;93302.66;;;16.94;71.70
39613;BME280;25303;48.896;13.342;2022-09-04T09:15:18;93312.34;;;17.22;70.63
39613;BME280;25303;48.896;13.342;2022-09-04T09:18:23;93321.53;;;17.39;71.25
39613;BME280;25303;48.896;13.342;2022-09-04T09:21:24;93312.47;;;17.57;71.04
39613;BME280;25303;48.896;13.342;2022-09-04T09:24:52;93317.84;;;17.77;70.66
39613;BME280;25303;48.896;13.342;2022-09-04T09:31:22;93319.63;;;18.33;69.89
39613;BME280;25303;48.896;13.342;2022-09-04T09:38:19;93310.13;;;19.09;68.15
39613;BME280;25303;48.896;13.342;2022-09-04T09:41:39;93318.38;;;19.53;67.39
39613;BME280;25303;48.896;13.342;2022-09-04T09:51:57;93310.16;;;20.89;64.93
39613;BME280;25303;48.896;13.342;2022-09-04T09:55:02;93313.09;;;21.38;63.13
39613;BME280;25303;48.896;13.342;2022-09-04T09:58:28;93318.44;;;21.82;62.74
39613;BME280;25303;48.896;13.342;2022-09-04T10:01:33;93309.84;;;22.00;60.26
39613;BME280;25303;48.896;13.342;2022-09-04T10:04:49;93308.56;;;22.28;60.43
39613;BME280;25303;48.896;13.342;2022-09-04T10:08:19;93304.88;;;22.55;58.65
39613;BME280;25303;48.896;13.342;2022-09-04T10:11:33;93300.75;;;22.77;56.81
39613;BME280;25303;48.896;13.342;2022-09-04T10:14:54;93302.34;;;22.97;55.99
39613;BME280;25303;48.896;13.342;2022-09-04T10:18:13;93308.66;;;23.27;56.60
39613;BME280;25303;48.896;13.342;2022-09-04T10:21:35;93306.53;;;23.59;54.70
39613;BME280;25303;48.896;13.342;2022-09-04T10:24:53;93301.56;;;23.81;54.75
39613;BME280;25303;48.896;13.342;2022-09-04T10:31:35;93304.00;;;24.07;51.80
39613;BME280;25303;48.896;13.342;2022-09-04T10:41:31;93301.47;;;24.36;50.65
39613;BME280;25303;48.896;13.342;2022-09-04T10:44:38;93304.53;;;24.56;49.22
39613;BME280;25303;48.896;13.342;2022-09-04T10:47:44;93302.91;;;24.79;50.99
39613;BME280;25303;48.896;13.342;2022-09-04T10:54:23;93289.38;;;25.33;47.73
39613;BME280;25303;48.896;13.342;2022-09-04T10:57:26;93292.88;;;25.51;48.76
39613;BME280;25303;48.896;13.342;2022-09-04T11:00:15;93292.19;;;25.56;49.34
39613;BME280;25303;48.896;13.342;2022-09-04T11:03:26;93287.16;;;25.71;48.05
39613;BME280;25303;48.896;13.342;2022-09-04T11:09:55;93295.63;;;25.90;45.88
39613;BME280;25303;48.896;13.342;2022-09-04T11:16:11;93296.16;;;25.75;46.77
39613;BME280;25303;48.896;13.342;2022-09-04T11:19:16;93289.78;;;25.71;45.00
39613;BME280;25303;48.896;13.342;2022-09-04T11:26:24;93298.00;;;25.92;44.14
39613;BME280;25303;48.896;13.342;2022-09-04T11:29:26;93295.78;;;25.84;44.12
39613;BME280;25303;48.896;13.342;2022-09-04T11:32:27;93299.78;;;26.03;44.54
39613;BME280;25303;48.896;13.342;2022-09-04T11:35:39;93293.28;;;26.28;43.58
39613;BME280;25303;48.896;13.342;2022-09-04T11:38:38;93301.13;;;26.62;43.75
39613;BME280;25303;48.896;13.342;2022-09-04T11:41:41;93291.69;;;26.89;42.68
39613;BME280;25303;48.896;13.342;2022-09-04T11:44:48;93291.59;;;27.06;42.18
39613;BME280;25303;48.896;13.342;2022-09-04T11:47:53;93298.75;;;27.33;42.17
39613;BME280;25303;48.896;13.342;2022-09-04T11:51:17;93302.53;;;27.42;39.80
39613;BME280;25303;48.896;13.342;2022-09-04T11:54:25;93290.19;;;27.48;39.60
39613;BME280;25303;48.896;13.342;2022-09-04T11:57:14;93298.78;;;27.60;40.57
39613;BME280;25303;48.896;13.342;2022-09-04T12:00:07;93288.03;;;27.77;41.44
39613;BME280;25303;48.896;13.342;2022-09-04T12:06:20;93295.34;;;27.97;41.20
39613;BME280;25303;48.896;13.342;2022-09-04T12:09:32;93291.13;;;28.01;39.60
39613;BME280;25303;48.896;13.342;2022-09-04T12:12:33;93285.97;;;28.12;40.83
39613;BME280;25303;48.896;13.342;2022-09-04T12:15:44;93299.06;;;27.96;38.57
39613;BME280;25303;48.896;13.342;2022-09-04T12:18:58;93304.53;;;27.84;38.43
39613;BME280;25303;48.896;13.342;2022-09-04T12:22:24;93306.41;;;27.89;38.39
39613;BME280;25303;48.896;13.342;2022-09-04T12:25:39;93300.72;;;28.08;38.28
39613;BME280;25303;48.896;13.342;2022-09-04T12:28:46;93298.22;;;28.28;38.22
39613;BME280;25303;48.896;13.342;2022-09-04T12:31:54;93297.69;;;28.26;37.48
39613;BME280;25303;48.896;13.342;2022-09-04T12:35:06;93296.47;;;28.07;37.94
39613;BME280;25303;48.896;13.342;2022-09-04T12:38:18;93301.00;;;27.73;37.46
39613;BME280;25303;48.896;13.342;2022-09-04T12:41:07;93303.22;;;27.32;38.53
39613;BME280;25303;48.896;13.342;2022-09-04T12:44:04;93302.06;;;26.95;39.16
39613;BME280;25303;48.896;13.342;2022-09-04T12:46:59;93306.19;;;26.86;39.65
39613;BME280;25303;48.896;13.342;2022-09-04T12:50:02;93309.03;;;26.62;38.70
39613;BME280;25303;48.896;13.342;2022-09-04T12:53:01;93298.94;;;26.37;39.85
39613;BME280;25303;48.896;13.342;2022-09-04T12:55:54;93310.81;;;26.17;40.22
39613;BME280;25303;48.896;13.342;2022-09-04T12:59:03;93304.97;;;25.98;40.33
39613;BME280;25303;48.896;13.342;2022-09-04T13:02:03;93311.59;;;25.67;40.44
39613;BME280;25303;48.896;13.342;2022-09-04T13:04:52;93317.06;;;25.19;42.12
39613;BME280;25303;48.896;13.342;2022-09-04T13:07:45;93319.50;;;24.80;42.77
39613;BME280;25303;48.896;13.342;2022-09-04T13:10:39;93318.38;;;24.52;42.75
39613;BME280;25303;48.896;13.342;2022-09-04T13:13:34;93322.22;;;23.78;44.45
39613;BME280;25303;48.896;13.342;2022-09-04T13:16:25;93324.59;;;23.25;45.19
39613;BME280;25303;48.896;13.342;2022-09-04T13:19:16;93324.75;;;22.81;46.46
39613;BME280;25303;48.896;13.342;2022-09-04T13:22:13;93324.22;;;22.35;48.54
39613;BME280;25303;48.896;13.342;2022-09-04T13:25:06;93331.84;;;21.93;49.96
39613;BME280;25303;48.896;13.342;2022-09-04T13:27:59;93325.88;;;21.53;50.70
39613;BME280;25303;48.896;13.342;2022-09-04T13:30:54;93333.41;;;21.04;53.18
39613;BME280;25303;48.896;13.342;2022-09-04T13:33:48;93333.03;;;20.42;56.66
39613;BME280;25303;48.896;13.342;2022-09-04T13:36:42;93331.69;;;19.99;58.03
39613;BME280;25303;48.896;13.342;2022-09-04T13:43:23;93342.53;;;18.93;65.07
39613;BME280;25303;48.896;13.342;2022-09-04T13:46:17;93338.09;;;18.87;61.60
39613;BME280;25303;48.896;13.342;2022-09-04T13:49:06;93337.28;;;18.80;61.70
39613;BME280;25303;48.896;13.342;2022-09-04T13:51:54;93343.09;;;18.75;61.59
39613;BME280;25303;48.896;13.342;2022-09-04T13:54:44;93347.66;;;18.66;63.36
39613;BME280;25303;48.896;13.342;2022-09-04T13:57:33;93343.66;;;18.71;62.72
39613;BME280;25303;48.896;13.342;2022-09-04T14:00:18;93352.41;;;18.56;64.61
39613;BME280;25303;48.896;13.342;2022-09-04T14:03:09;93367.31;;;18.62;66.14
39613;BME280;25303;48.896;13.342;2022-09-04T14:05:55;93358.75;;;18.75;66.30
39613;BME280;25303;48.896;13.342;2022-09-04T14:08:38;93360.31;;;18.70;67.15
39613;BME280;25303;48.896;13.342;2022-09-04T14:15:15;93358.34;;;19.27;66.02
39613;BME280;25303;48.896;13.342;2022-09-04T14:18:12;93356.09;;;19.17;67.84
39613;BME280;25303;48.896;13.342;2022-09-04T14:21:03;93364.19;;;19.36;64.45
39613;BME280;25303;48.896;13.342;2022-09-04T14:23:58;93359.97;;;19.41;66.21
39613;BME280;25303;48.896;13.342;2022-09-04T14:26:51;93360.59;;;19.57;66.45
39613;BME280;25303;48.896;13.342;2022-09-04T14:29:48;93357.41;;;19.95;66.04
39613;BME280;25303;48.896;13.342;2022-09-04T14:32:47;93369.88;;;20.20;64.60
39613;BME280;25303;48.896;13.342;2022-09-04T14:35:44;93370.44;;;20.36;65.37
39613;BME280;25303;48.896;13.342;2022-09-04T14:38:50;93364.56;;;20.54;64.82
39613;BME280;25303;48.896;13.342;2022-09-04T14:41:53;93369.03;;;20.46;64.00
39613;BME280;25303;48.896;13.342;2022-09-04T14:44:50;93367.41;;;20.45;63.57
39613;BME280;25303;48.896;13.342;2022-09-04T14:47:43;93370.06;;;20.39;62.68
39613;BME280;25303;48.896;13.342;2022-09-04T14:50:31;93375.91;;;20.14;62.82
39613;BME280;25303;48.896;13.342;2022-09-04T14:53:22;93376.91;;;19.99;63.04
39613;BME280;25303;48.896;13.342;2022-09-04T14:56:27;93377.50;;;19.81;63.37
39613;BME280;25303;48.896;13.342;2022-09-04T14:59:18;93380.28;;;19.59;64.26
39613;BME280;25303;48.896;13.342;2022-09-04T15:02:22;93381.44;;;19.37;67.05
39613;BME280;25303;48.896;13.342;2022-09-04T15:05:15;93385.06;;;19.36;65.19
39613;BME280;25303;48.896;13.342;2022-09-04T15:08:02;93380.63;;;19.30;65.13
39613;BME280;25303;48.896;13.342;2022-09-04T15:10:50;93378.53;;;19.05;65.65
39613;BME280;25303;48.896;13.342;2022-09-04T15:13:48;93377.47;;;18.92;65.82
39613;BME280;25303;48.896;13.342;2022-09-04T15:16:42;93383.34;;;18.66;68.22
39613;BME280;25303;48.896;13.342;2022-09-04T15:19:35;93376.84;;;18.48;67.62
39613;BME280;25303;48.896;13.342;2022-09-04T15:22:26;93376.22;;;18.46;66.99
39613;BME280;25303;48.896;13.342;2022-09-04T15:25:30;93380.84;;;18.44;67.73
39613;BME280;25303;48.896;13.342;2022-09-04T15:28:40;93381.41;;;18.40;67.79
39613;BME280;25303;48.896;13.342;2022-09-04T15:31:28;93385.22;;;18.37;68.16
39613;BME280;25303;48.896;13.342;2022-09-04T15:34:19;93383.59;;;18.36;68.35
39613;BME280;25303;48.896;13.342;2022-09-04T15:37:13;93376.53;;;18.30;69.40
39613;BME280;25303;48.896;13.342;2022-09-04T15:40:03;93373.84;;;18.16;69.45
39613;BME280;25303;48.896;13.342;2022-09-04T15:42:54;93378.03;;;18.11;72.17
39613;BME280;25303;48.896;13.342;2022-09-04T15:45:44;93378.31;;;18.22;68.97
39613;BME280;25303;48.896;13.342;2022-09-04T15:48:38;93378.88;;;18.18;69.71
39613;BME280;25303;48.896;13.342;2022-09-04T15:51:28;93376.69;;;18.21;69.91
39613;BME280;25303;48.896;13.342;2022-09-04T15:54:24;93374.22;;;18.13;70.11
39613;BME280;25303;48.896;13.342;2022-09-04T15:57:16;93374.91;;;18.29;69.97
39613;BME280;25303;48.896;13.342;2022-09-04T16:00:06;93383.41;;;18.37;69.32
39613;BME280;25303;48.896;13.342;2022-09-04T16:02:59;93385.44;;;18.42;69.24
39613;BME280;25303;48.896;13.342;2022-09-04T16:05:50;93381.03;;;18.43;69.52
39613;BME280;25303;48.896;13.342;2022-09-04T16:08:39;93383.63;;;18.43;69.35
39613;BME280;25303;48.896;13.342;2022-09-04T16:11:30;93382.59;;;18.37;69.46
39613;BME280;25303;48.896;13.342;2022-09-04T16:14:17;93383.59;;;18.36;69.49
39613;BME280;25303;48.896;13.342;2022-09-04T16:17:06;93379.13;;;18.30;69.47
39613;BME280;25303;48.896;13.342;2022-09-04T16:19:58;93388.16;;;18.27;69.32
39613;BME280;25303;48.896;13.342;2022-09-04T16:22:47;93391.19;;;18.31;69.27
39613;BME280;25303;48.896;13.342;2022-09-04T16:25:34;93392.41;;;18.35;69.13
39613;BME280;25303;48.896;13.342;2022-09-04T16:28:25;93381.19;;;18.34;69.25
39613;BME280;25303;48.896;13.342;2022-09-04T16:31:20;93394.03;;;18.36;69.34
39613;BME280;25303;48.896;13.342;2022-09-04T16:34:15;93395.84;;;18.35;69.43
39613;BME280;25303;48.896;13.342;2022-09-04T16:37:04;93388.81;;;18.36;69.03
39613;BME280;25303;48.896;13.342;2022-09-04T16:39:59;93391.78;;;18.33;69.21
39613;BME280;25303;48.896;13.342;2022-09-04T16:42:47;93390.38;;;18.30;69.63
39613;BME280;25303;48.896;13.342;2022-09-04T16:45:35;93388.97;;;18.28;69.51
39613;BME280;25303;48.896;13.342;2022-09-04T16:48:24;93390.34;;;18.24;69.67